Novato, CA

4:03 PM PDT on May 22, 2015 (GMT -0700)
Tara Heights | | Change Station
CLOSE
Current Station
Personal Weather Station
Location: Novato, CA
Elevation: 180 ft
Nearby Weather Stations

Elev 180 ft 38.12 °N, 122.58 °W | Updated 11 minutes ago

Mostly Cloudy
Mostly Cloudy
66.4 °F
Feels Like 66.4 °F
N
3.0
Wind Variable Wind from West
Gusts 9.0 mph

Today
High -- | Low -- °F
--% Chance of Precip.
Yesterday
High -- | Low -- °F
Precip. -- in
5:54 AM 8:19 PM
Waxing Crescent, 24% visible
Pressure 30.01 in
Visibility 10.0 miles
Clouds Scattered Clouds 2700 ft
Dew Point 54 °F
Humidity 64%
Rainfall 0.00 in
Snow Depth Not available.
UV 6 out of 12
Pollen 5.80 out of 12
Air Quality Not available.
Flu Activity Sporadic
METAR KO69 222255Z AUTO 25011G16KT 10SM SCT027 19/10 A3001 RMK AO1

More Conditions Fewer Conditions

Pressure 30.01 in
Visibility 10.0 miles
Clouds Scattered Clouds 2700 ft
Dew Point 54 °F
Humidity 64%
Rainfall 0.00 in
Snow Depth Not available.
UV 6 out of 12
Pollen 5.80 out of 12
Air Quality Not available.
Flu Activity Sporadic
METAR KO69 222255Z AUTO 25011G16KT 10SM SCT027 19/10 A3001 RMK AO1

More Conditions Fewer Conditions

10-Day Weather Forecast

Almanac

Astronomy

May. 22, 2015 Rise Set
Actual Time
Civil Twilight
Nautical Twilight
Astronomical Twilight
Moon
Length of Visible Light
Length of Day
Tomorrow will be .
, % of the Moon is Illuminated

Today's Extremes

State Highs State Lows

Community

WunderPhotos

Upload Photos

1,823,330 photos uploaded!

WunderBlogs® & News

Nearby

Air Quality

  Air Quality AQ Index Pollutant
Not available.

Snow Depth

Station Depth Elevation

Earthquake Activity

City Distance Mag. Time & Date
Minimum magnitude displayed is 2.5.

Coastal Water Temperatures

Place Temperature

Stations

Nearby Weather Stations

Station Location Temp. Windchill Dew Point Humidity Wind Precip. Elev Updated Type